sensor_id;sensor_type;location;lat;lon;timestamp;P1;durP1;ratioP1;P2;durP2;ratioP2
38190;SDS011;25191;47.510;19.124;2023-02-10T00:04:16;19.20;;;12.05;;
38190;SDS011;25191;47.510;19.124;2023-02-10T00:14:17;19.67;;;11.70;;
38190;SDS011;25191;47.510;19.124;2023-02-10T00:24:19;18.35;;;11.82;;
38190;SDS011;25191;47.510;19.124;2023-02-10T00:34:20;21.80;;;12.55;;
38190;SDS011;25191;47.510;19.124;2023-02-10T00:44:20;18.33;;;12.30;;
38190;SDS011;25191;47.510;19.124;2023-02-10T00:54:21;17.88;;;12.10;;
38190;SDS011;25191;47.510;19.124;2023-02-10T01:04:21;19.38;;;12.38;;
38190;SDS011;25191;47.510;19.124;2023-02-10T01:14:21;22.58;;;12.43;;
38190;SDS011;25191;47.510;19.124;2023-02-10T01:24:23;20.77;;;12.43;;
38190;SDS011;25191;47.510;19.124;2023-02-10T01:34:24;20.92;;;14.07;;
38190;SDS011;25191;47.510;19.124;2023-02-10T01:54:26;21.35;;;13.40;;
38190;SDS011;25191;47.510;19.124;2023-02-10T02:04:52;22.08;;;13.98;;
38190;SDS011;25191;47.510;19.124;2023-02-10T02:14:58;22.02;;;15.30;;
38190;SDS011;25191;47.510;19.124;2023-02-10T02:35:17;21.83;;;13.63;;
38190;SDS011;25191;47.510;19.124;2023-02-10T02:56:20;23.13;;;14.68;;
38190;SDS011;25191;47.510;19.124;2023-02-10T03:05:54;22.90;;;14.38;;
38190;SDS011;25191;47.510;19.124;2023-02-10T03:15:58;20.60;;;13.90;;
38190;SDS011;25191;47.510;19.124;2023-02-10T03:25:59;22.40;;;14.68;;
38190;SDS011;25191;47.510;19.124;2023-02-10T03:36:00;20.85;;;14.05;;
38190;SDS011;25191;47.510;19.124;2023-02-10T03:46:01;24.25;;;14.50;;
38190;SDS011;25191;47.510;19.124;2023-02-10T03:56:04;22.83;;;15.00;;
38190;SDS011;25191;47.510;19.124;2023-02-10T04:06:04;22.52;;;14.18;;
38190;SDS011;25191;47.510;19.124;2023-02-10T04:16:06;23.20;;;15.05;;
38190;SDS011;25191;47.510;19.124;2023-02-10T04:26:09;24.75;;;15.70;;
38190;SDS011;25191;47.510;19.124;2023-02-10T04:36:09;22.98;;;14.98;;
38190;SDS011;25191;47.510;19.124;2023-02-10T04:46:10;25.45;;;14.82;;
38190;SDS011;25191;47.510;19.124;2023-02-10T04:56:10;24.50;;;14.75;;
38190;SDS011;25191;47.510;19.124;2023-02-10T05:06:12;26.75;;;15.35;;
38190;SDS011;25191;47.510;19.124;2023-02-10T05:16:14;24.13;;;15.23;;
38190;SDS011;25191;47.510;19.124;2023-02-10T05:26:15;26.15;;;15.40;;
38190;SDS011;25191;47.510;19.124;2023-02-10T05:36:15;29.38;;;15.00;;
38190;SDS011;25191;47.510;19.124;2023-02-10T05:46:15;38.00;;;14.73;;
38190;SDS011;25191;47.510;19.124;2023-02-10T05:56:16;24.52;;;13.85;;
38190;SDS011;25191;47.510;19.124;2023-02-10T06:06:16;26.45;;;14.90;;
38190;SDS011;25191;47.510;19.124;2023-02-10T06:16:17;25.73;;;15.18;;
38190;SDS011;25191;47.510;19.124;2023-02-10T06:26:19;33.72;;;14.52;;
38190;SDS011;25191;47.510;19.124;2023-02-10T06:36:21;36.63;;;18.30;;
38190;SDS011;25191;47.510;19.124;2023-02-10T06:46:21;32.08;;;17.48;;
38190;SDS011;25191;47.510;19.124;2023-02-10T06:56:22;27.20;;;14.85;;
38190;SDS011;25191;47.510;19.124;2023-02-10T07:06:22;27.35;;;15.02;;
38190;SDS011;25191;47.510;19.124;2023-02-10T07:16:23;24.95;;;14.00;;
38190;SDS011;25191;47.510;19.124;2023-02-10T07:26:24;23.13;;;13.80;;
38190;SDS011;25191;47.510;19.124;2023-02-10T07:36:26;24.75;;;13.82;;
38190;SDS011;25191;47.510;19.124;2023-02-10T07:46:26;24.58;;;14.13;;
38190;SDS011;25191;47.510;19.124;2023-02-10T07:56:27;21.58;;;13.35;;
38190;SDS011;25191;47.510;19.124;2023-02-10T08:06:29;22.48;;;13.25;;
38190;SDS011;25191;47.510;19.124;2023-02-10T08:16:30;21.27;;;13.10;;
38190;SDS011;25191;47.510;19.124;2023-02-10T08:26:30;23.45;;;13.32;;
38190;SDS011;25191;47.510;19.124;2023-02-10T08:36:31;20.35;;;13.13;;
38190;SDS011;25191;47.510;19.124;2023-02-10T08:46:31;26.75;;;13.68;;
38190;SDS011;25191;47.510;19.124;2023-02-10T08:56:32;23.13;;;13.50;;
38190;SDS011;25191;47.510;19.124;2023-02-10T09:06:34;21.15;;;13.45;;
38190;SDS011;25191;47.510;19.124;2023-02-10T09:16:39;20.88;;;12.80;;
38190;SDS011;25191;47.510;19.124;2023-02-10T09:26:40;21.00;;;13.50;;
38190;SDS011;25191;47.510;19.124;2023-02-10T09:36:40;20.27;;;13.15;;
38190;SDS011;25191;47.510;19.124;2023-02-10T09:46:47;23.15;;;15.32;;
38190;SDS011;25191;47.510;19.124;2023-02-10T09:57:12;23.65;;;14.18;;
38190;SDS011;25191;47.510;19.124;2023-02-10T10:07:25;21.25;;;13.38;;
38190;SDS011;25191;47.510;19.124;2023-02-10T10:38:08;17.52;;;11.02;;
38190;SDS011;25191;47.510;19.124;2023-02-10T10:48:17;18.13;;;11.00;;
38190;SDS011;25191;47.510;19.124;2023-02-10T10:58:27;15.77;;;10.10;;
38190;SDS011;25191;47.510;19.124;2023-02-10T11:08:32;13.93;;;9.35;;
38190;SDS011;25191;47.510;19.124;2023-02-10T11:18:35;12.95;;;8.63;;
38190;SDS011;25191;47.510;19.124;2023-02-10T11:28:37;12.75;;;8.52;;
38190;SDS011;25191;47.510;19.124;2023-02-10T11:38:38;13.13;;;7.90;;
38190;SDS011;25191;47.510;19.124;2023-02-10T11:48:40;13.33;;;7.43;;
38190;SDS011;25191;47.510;19.124;2023-02-10T11:58:44;11.23;;;7.70;;
38190;SDS011;25191;47.510;19.124;2023-02-10T12:09:17;10.15;;;7.50;;
38190;SDS011;25191;47.510;19.124;2023-02-10T13:00:30;10.50;;;6.20;;
38190;SDS011;25191;47.510;19.124;2023-02-10T13:20:44;9.55;;;6.00;;
38190;SDS011;25191;47.510;19.124;2023-02-10T13:41:16;7.82;;;5.40;;
38190;SDS011;25191;47.510;19.124;2023-02-10T13:51:42;6.72;;;5.30;;
38190;SDS011;25191;47.510;19.124;2023-02-10T14:01:47;6.18;;;5.00;;
38190;SDS011;25191;47.510;19.124;2023-02-10T14:11:50;7.70;;;4.90;;
38190;SDS011;25191;47.510;19.124;2023-02-10T14:21:52;6.03;;;4.50;;
38190;SDS011;25191;47.510;19.124;2023-02-10T14:42:00;7.85;;;5.93;;
38190;SDS011;25191;47.510;19.124;2023-02-10T14:52:04;5.97;;;4.70;;
38190;SDS011;25191;47.510;19.124;2023-02-10T15:02:10;7.30;;;4.90;;
38190;SDS011;25191;47.510;19.124;2023-02-10T15:12:17;7.60;;;4.80;;
38190;SDS011;25191;47.510;19.124;2023-02-10T15:22:38;6.03;;;4.68;;
38190;SDS011;25191;47.510;19.124;2023-02-10T15:32:46;6.70;;;4.78;;
38190;SDS011;25191;47.510;19.124;2023-02-10T15:43:22;6.88;;;5.07;;
38190;SDS011;25191;47.510;19.124;2023-02-10T15:53:27;6.25;;;4.80;;
38190;SDS011;25191;47.510;19.124;2023-02-10T16:03:29;6.22;;;4.63;;
38190;SDS011;25191;47.510;19.124;2023-02-10T16:13:30;5.22;;;4.18;;
38190;SDS011;25191;47.510;19.124;2023-02-10T16:23:31;7.25;;;4.45;;
38190;SDS011;25191;47.510;19.124;2023-02-10T16:33:31;6.43;;;4.40;;
38190;SDS011;25191;47.510;19.124;2023-02-10T16:43:34;9.37;;;4.73;;
38190;SDS011;25191;47.510;19.124;2023-02-10T16:53:36;11.07;;;4.60;;
38190;SDS011;25191;47.510;19.124;2023-02-10T17:03:37;6.30;;;4.32;;
38190;SDS011;25191;47.510;19.124;2023-02-10T17:13:39;7.82;;;5.05;;
38190;SDS011;25191;47.510;19.124;2023-02-10T17:23:40;10.68;;;4.45;;
38190;SDS011;25191;47.510;19.124;2023-02-10T17:33:41;7.97;;;4.32;;
38190;SDS011;25191;47.510;19.124;2023-02-10T17:43:48;10.48;;;5.07;;
38190;SDS011;25191;47.510;19.124;2023-02-10T17:53:51;6.93;;;4.43;;
38190;SDS011;25191;47.510;19.124;2023-02-10T18:03:52;7.85;;;4.78;;
38190;SDS011;25191;47.510;19.124;2023-02-10T18:13:54;17.03;;;4.80;;
38190;SDS011;25191;47.510;19.124;2023-02-10T18:23:55;12.18;;;4.43;;
38190;SDS011;25191;47.510;19.124;2023-02-10T18:33:56;11.93;;;4.72;;
38190;SDS011;25191;47.510;19.124;2023-02-10T18:43:59;7.77;;;4.80;;
38190;SDS011;25191;47.510;19.124;2023-02-10T18:54:00;9.65;;;4.47;;
38190;SDS011;25191;47.510;19.124;2023-02-10T19:04:00;10.75;;;4.50;;
38190;SDS011;25191;47.510;19.124;2023-02-10T19:14:03;8.75;;;4.20;;
38190;SDS011;25191;47.510;19.124;2023-02-10T19:24:04;24.70;;;16.45;;
38190;SDS011;25191;47.510;19.124;2023-02-10T19:34:06;25.57;;;18.27;;
38190;SDS011;25191;47.510;19.124;2023-02-10T19:44:14;25.48;;;18.13;;
38190;SDS011;25191;47.510;19.124;2023-02-10T19:54:17;26.00;;;16.90;;
38190;SDS011;25191;47.510;19.124;2023-02-10T20:04:18;21.88;;;15.38;;
38190;SDS011;25191;47.510;19.124;2023-02-10T20:14:19;23.13;;;14.48;;
38190;SDS011;25191;47.510;19.124;2023-02-10T20:24:20;17.83;;;13.43;;
38190;SDS011;25191;47.510;19.124;2023-02-10T20:34:21;20.15;;;12.48;;
38190;SDS011;25191;47.510;19.124;2023-02-10T20:44:23;18.03;;;12.37;;
38190;SDS011;25191;47.510;19.124;2023-02-10T20:54:24;18.67;;;10.98;;
38190;SDS011;25191;47.510;19.124;2023-02-10T21:04:25;14.82;;;11.00;;
38190;SDS011;25191;47.510;19.124;2023-02-10T21:14:26;14.48;;;10.25;;
38190;SDS011;25191;47.510;19.124;2023-02-10T21:24:28;13.95;;;9.27;;
38190;SDS011;25191;47.510;19.124;2023-02-10T21:34:29;16.77;;;10.32;;
38190;SDS011;25191;47.510;19.124;2023-02-10T21:44:30;12.88;;;9.52;;
38190;SDS011;25191;47.510;19.124;2023-02-10T21:54:36;12.82;;;8.55;;
38190;SDS011;25191;47.510;19.124;2023-02-10T22:04:40;12.82;;;8.48;;
38190;SDS011;25191;47.510;19.124;2023-02-10T22:14:41;11.23;;;7.72;;
38190;SDS011;25191;47.510;19.124;2023-02-10T22:24:42;10.35;;;7.93;;
38190;SDS011;25191;47.510;19.124;2023-02-10T22:34:45;14.13;;;8.70;;
38190;SDS011;25191;47.510;19.124;2023-02-10T22:44:46;10.90;;;7.80;;
38190;SDS011;25191;47.510;19.124;2023-02-10T22:54:51;11.15;;;8.13;;
38190;SDS011;25191;47.510;19.124;2023-02-10T23:04:53;12.68;;;7.93;;
38190;SDS011;25191;47.510;19.124;2023-02-10T23:14:53;12.25;;;8.40;;
38190;SDS011;25191;47.510;19.124;2023-02-10T23:24:54;10.50;;;7.32;;
38190;SDS011;25191;47.510;19.124;2023-02-10T23:34:54;11.68;;;8.27;;
38190;SDS011;25191;47.510;19.124;2023-02-10T23:44:55;11.05;;;7.88;;
38190;SDS011;25191;47.510;19.124;2023-02-10T23:54:55;10.82;;;8.10;;
